map of ISO home
ISO - Airport
Location
City:  Kinston, North Carolina, United States
Name:Kinston Regional Jetport at Stallings Field
ICAO:KISO
IATA:ISO
FAA LID:ISO

Details
Type:Airport (Part 139 Class I)
Use:Public/Civil
Latitude:3519'53"N (35.331444)
Longitude:7736'32"W (-77.608832)
Datum:WGS 1984
Elevation:92 ft (28 m)
Variation:9.80W (WMM2015 magnetic declination)
-0.04 annual change
Runways:1
Longest:11500 × 150 ft (3505 × 45.5 m), paved

Time
Time Zone:UTC-5 (DST-4)
Local Time:

Weather
METAR:KISO 111256Z 20004KT 10SM CLR 00/M02 A3017 RMK AO2
TAF:KISO 111136Z 1112/1212 26005KT P6SM SKC
FM120800 20008KT P6SM SKC
AMD LTD TO CLD VIS AND WIND

Related Locations
Nearby:
Farthest:MQZ: 11714 mi / 18851 km
Margaret River [Margaret River Airport], WA, AU

Find:

   beyond  
but within

Other Information
Maps:
NOTAMs:
Links:
Sources:

  
flag of United States
flag of North Carolina
  

Airport Diagram

Airport diagram for ISO

Airport diagram PDF

Sectional Chart

Flight Planning
at skyvector.com

Satellite Image

Google Maps Satellite view

 

Copyright © 2004-2017 Karl L. Swartz. All rights reserved.
The Great Circle Mapper name and logo are trademarks of the Great Circle Mapper.
All other trademarks mentioned herein belong to their respective owners.
Please see credits for attibutions and further copyright information.

  Follow gcmap on Facebook Follow gcmap on Twitter Follow gcmap on Google+ GCmap on LinkedIn

hCard Microformat

Geo Microformat